createdAt,value
2023-04-16T00:02:32.684Z,8.70
2023-04-16T00:06:35.430Z,8.67
2023-04-16T00:10:38.367Z,8.68
2023-04-16T00:14:43.414Z,8.69
2023-04-16T00:18:46.580Z,8.76
2023-04-16T00:22:49.361Z,8.73
2023-04-16T00:26:52.018Z,8.73
2023-04-16T00:30:56.630Z,8.75
2023-04-16T00:34:59.374Z,8.73
2023-04-16T00:39:02.102Z,8.69
2023-04-16T00:43:04.857Z,8.76
2023-04-16T00:47:09.714Z,8.83
2023-04-16T00:51:12.711Z,8.83
2023-04-16T00:55:18.559Z,8.86
2023-04-16T00:59:22.314Z,8.81
2023-04-16T01:03:35.941Z,8.79
2023-04-16T01:07:38.692Z,8.83
2023-04-16T01:11:41.418Z,8.90
2023-04-16T01:15:44.186Z,8.90
2023-04-16T01:19:48.251Z,8.93
2023-04-16T01:23:52.282Z,8.97
2023-04-16T01:27:57.322Z,9.03
2023-04-16T01:31:59.965Z,9.06
2023-04-16T01:36:22.912Z,9.00
2023-04-16T01:40:27.029Z,9.02
2023-04-16T01:44:30.866Z,9.02
2023-04-16T01:48:34.030Z,9.01
2023-04-16T01:52:36.983Z,9.06
2023-04-16T01:56:41.107Z,9.06
2023-04-16T02:00:44.038Z,9.09
2023-04-16T02:04:47.315Z,9.04
2023-04-16T02:08:50.053Z,9.13
2023-04-16T02:12:54.065Z,9.12
2023-04-16T02:16:57.276Z,9.10
2023-04-16T02:21:12.608Z,9.13
2023-04-16T02:25:16.054Z,9.16
2023-04-16T02:29:21.229Z,9.23
2023-04-16T02:33:31.782Z,9.25
2023-04-16T02:37:37.702Z,9.32
2023-04-16T02:41:41.016Z,9.27
2023-04-16T02:45:45.124Z,9.30
2023-04-16T02:49:47.855Z,9.27
2023-04-16T02:53:50.582Z,9.26
2023-04-16T02:57:53.826Z,9.29
2023-04-16T03:01:58.053Z,9.32
2023-04-16T03:06:00.998Z,9.25
2023-04-16T03:10:03.828Z,9.21
2023-04-16T03:14:06.676Z,9.20
2023-04-16T03:18:10.683Z,9.21
2023-04-16T03:22:13.413Z,9.24
2023-04-16T03:26:16.458Z,9.19
2023-04-16T03:30:19.219Z,9.17
2023-04-16T03:34:23.380Z,9.15
2023-04-16T03:38:26.798Z,9.11
2023-04-16T03:42:32.137Z,9.10
2023-04-16T03:46:35.016Z,9.12
2023-04-16T03:50:39.122Z,9.09
2023-04-16T03:54:44.569Z,9.12
2023-04-16T03:59:00.175Z,9.16
2023-04-16T04:03:04.178Z,9.10
2023-04-16T04:07:09.243Z,9.09
2023-04-16T04:11:12.282Z,9.06
2023-04-16T04:15:17.460Z,9.07
2023-04-16T04:19:20.208Z,9.06
2023-04-16T04:23:25.541Z,8.98
2023-04-16T04:27:28.347Z,8.97
2023-04-16T04:31:31.192Z,9.08
2023-04-16T04:35:34.058Z,9.10
2023-04-16T04:39:39.177Z,9.11
2023-04-16T04:43:42.405Z,9.11
2023-04-16T04:47:45.638Z,9.14
2023-04-16T04:51:49.451Z,9.12
2023-04-16T04:55:55.695Z,9.09
2023-04-16T05:00:03.773Z,9.07
2023-04-16T05:04:14.999Z,9.01
2023-04-16T05:08:17.825Z,9.07
2023-04-16T05:12:21.827Z,9.01
2023-04-16T05:16:24.705Z,9.07
2023-04-16T05:20:27.456Z,9.11
2023-04-16T05:24:30.187Z,9.03
2023-04-16T05:28:34.222Z,9.03
2023-04-16T05:32:39.888Z,9.00
2023-04-16T05:36:42.661Z,9.09
2023-04-16T05:40:45.374Z,9.07
2023-04-16T05:44:49.518Z,9.11
2023-04-16T05:48:52.281Z,9.12
2023-04-16T05:52:54.965Z,9.21
2023-04-16T05:56:57.730Z,9.25
2023-04-16T06:01:02.101Z,9.24
2023-04-16T06:05:05.627Z,9.19
2023-04-16T06:09:08.507Z,9.09
2023-04-16T06:13:11.385Z,9.05
2023-04-16T06:17:15.508Z,9.09
2023-04-16T06:21:18.294Z,9.01
2023-04-16T06:25:21.025Z,8.95
2023-04-16T06:29:33.540Z,8.95
2023-04-16T06:33:44.273Z,9.02
2023-04-16T06:37:47.187Z,9.03
2023-04-16T06:41:49.994Z,9.01
2023-04-16T06:45:53.868Z,8.95
2023-04-16T06:49:57.883Z,8.90
2023-04-16T06:54:01.021Z,8.95
2023-04-16T06:58:03.723Z,9.09
2023-04-16T07:02:06.623Z,9.10
2023-04-16T07:06:11.326Z,9.19
2023-04-16T07:10:14.023Z,9.25
2023-04-16T07:14:16.784Z,9.31
2023-04-16T07:18:20.688Z,9.32
2023-04-16T07:22:24.999Z,9.49
2023-04-16T07:26:27.761Z,9.66
2023-04-16T07:30:34.232Z,9.81
2023-04-16T07:34:36.962Z,9.90
2023-04-16T07:38:41.226Z,9.92
2023-04-16T07:42:44.405Z,9.98
2023-04-16T07:46:47.798Z,10.08
2023-04-16T07:50:51.113Z,10.12
2023-04-16T07:54:55.204Z,10.28
2023-04-16T07:59:07.994Z,10.28
2023-04-16T08:03:18.259Z,10.22
2023-04-16T08:07:21.133Z,10.31
2023-04-16T08:11:25.307Z,10.41
2023-04-16T08:15:28.171Z,10.39
2023-04-16T08:19:31.146Z,10.41
2023-04-16T08:23:33.921Z,10.49
2023-04-16T08:27:38.135Z,10.60
2023-04-16T08:31:41.185Z,10.78
2023-04-16T08:35:43.916Z,10.92
2023-04-16T08:39:46.688Z,11.03
2023-04-16T08:43:52.122Z,11.08
2023-04-16T08:47:55.029Z,11.38
2023-04-16T08:51:58.215Z,11.68
2023-04-16T08:56:04.752Z,11.89
2023-04-16T09:00:10.897Z,12.08
2023-04-16T09:04:15.819Z,12.30
2023-04-16T09:08:19.156Z,12.55
2023-04-16T09:12:24.959Z,12.61
2023-04-16T09:16:34.485Z,12.56
2023-04-16T09:20:37.360Z,12.66
2023-04-16T09:24:40.080Z,13.05
2023-04-16T09:28:44.597Z,13.17
2023-04-16T09:32:49.257Z,13.08
2023-04-16T09:36:52.080Z,13.12
2023-04-16T09:41:07.211Z,13.14
2023-04-16T09:45:12.495Z,13.32
2023-04-16T09:49:18.583Z,13.36
2023-04-16T09:53:25.141Z,13.32
2023-04-16T09:57:27.858Z,13.30
2023-04-16T10:01:31.919Z,13.65
2023-04-16T10:05:37.068Z,14.00
2023-04-16T10:09:40.736Z,14.19
2023-04-16T10:13:43.569Z,14.31
2023-04-16T10:17:46.791Z,14.26
2023-04-16T10:21:51.031Z,14.54
2023-04-16T10:25:57.472Z,14.64
2023-04-16T10:30:01.367Z,14.47
2023-04-16T10:34:04.651Z,14.64
2023-04-16T10:42:36.394Z,15.06
2023-04-16T10:46:40.588Z,15.11
2023-04-16T10:50:43.261Z,15.29
2023-04-16T10:54:47.927Z,15.21
2023-04-16T10:58:54.825Z,14.99
2023-04-16T11:02:57.688Z,14.99
2023-04-16T11:07:08.899Z,15.20
2023-04-16T11:11:11.667Z,15.41
2023-04-16T11:15:16.956Z,15.60
2023-04-16T11:19:19.900Z,15.56
2023-04-16T11:23:22.638Z,15.71
2023-04-16T11:27:26.357Z,15.76
2023-04-16T11:31:30.457Z,15.74
2023-04-16T11:35:33.308Z,15.87
2023-04-16T11:39:49.012Z,15.86
2023-04-16T11:43:51.692Z,15.75
2023-04-16T11:47:57.771Z,15.93
2023-04-16T11:52:00.926Z,15.92
2023-04-16T11:56:04.722Z,15.67
2023-04-16T12:00:10.969Z,15.49
2023-04-16T12:04:19.678Z,15.54
2023-04-16T12:08:31.687Z,15.57
2023-04-16T12:12:35.349Z,15.56
2023-04-16T12:16:38.162Z,15.61
2023-04-16T12:20:42.840Z,15.54
2023-04-16T12:24:45.626Z,15.45
2023-04-16T12:28:48.375Z,15.33
2023-04-16T12:32:52.749Z,15.30
2023-04-16T12:37:09.406Z,15.49
2023-04-16T12:41:12.207Z,15.62
2023-04-16T12:45:15.013Z,15.55
2023-04-16T12:49:17.655Z,15.55
2023-04-16T12:53:21.731Z,15.42
2023-04-16T12:57:28.498Z,15.36
2023-04-16T13:01:31.424Z,15.48
2023-04-16T13:05:34.123Z,15.51
2023-04-16T13:09:39.802Z,15.45
2023-04-16T13:13:42.826Z,15.43
2023-04-16T13:17:46.112Z,15.42
2023-04-16T13:21:48.900Z,15.49
2023-04-16T13:25:52.942Z,15.37
2023-04-16T13:29:55.809Z,15.06
2023-04-16T13:33:58.703Z,15.02
2023-04-16T13:38:03.809Z,15.03
2023-04-16T13:42:07.837Z,15.07
2023-04-16T13:46:10.576Z,15.23
2023-04-16T13:50:13.473Z,15.23
2023-04-16T13:54:16.158Z,15.22
2023-04-16T13:58:20.534Z,15.31
2023-04-16T14:02:24.099Z,15.34
2023-04-16T14:06:26.975Z,15.43
2023-04-16T14:10:30.043Z,15.66
2023-04-16T14:14:34.256Z,15.88
2023-04-16T14:18:41.058Z,15.94
2023-04-16T14:22:44.234Z,15.94
2023-04-16T14:26:47.102Z,15.95
2023-04-16T14:30:51.342Z,16.07
2023-04-16T14:34:54.138Z,16.00
2023-04-16T14:38:56.827Z,15.96
2023-04-16T14:42:59.858Z,15.92
2023-04-16T14:47:03.948Z,15.79
2023-04-16T14:51:07.258Z,15.77
2023-04-16T14:55:10.029Z,15.88
2023-04-16T14:59:12.892Z,15.91
2023-04-16T15:03:17.234Z,15.94
2023-04-16T15:07:20.958Z,15.81
2023-04-16T15:11:23.749Z,15.92
2023-04-16T15:15:26.428Z,15.93
2023-04-16T15:19:30.499Z,15.94
2023-04-16T15:23:33.604Z,15.86
2023-04-16T15:27:36.485Z,15.63
2023-04-16T15:31:39.214Z,15.54
2023-04-16T15:35:43.254Z,15.32
2023-04-16T15:39:46.241Z,15.23
2023-04-16T15:43:49.589Z,15.18
2023-04-16T15:47:52.346Z,15.07
2023-04-16T15:51:56.919Z,15.02
2023-04-16T15:55:59.735Z,15.00
2023-04-16T16:00:07.281Z,15.07
2023-04-16T16:04:10.623Z,15.00
2023-04-16T16:08:15.374Z,15.03
2023-04-16T16:12:18.501Z,15.09
2023-04-16T16:16:21.750Z,15.10
2023-04-16T16:20:24.948Z,15.04
2023-04-16T16:24:29.104Z,15.04
2023-04-16T16:28:31.794Z,15.11
2023-04-16T16:32:34.630Z,15.07
2023-04-16T16:36:38.012Z,14.93
2023-04-16T16:40:42.045Z,14.99
2023-04-16T16:44:44.775Z,15.00
2023-04-16T16:48:47.504Z,14.93
2023-04-16T16:52:50.172Z,14.92
2023-04-16T16:56:54.492Z,14.80
2023-04-16T17:00:57.277Z,14.72
2023-04-16T17:05:00.158Z,14.59
2023-04-16T17:09:03.146Z,14.56
2023-04-16T17:13:07.271Z,14.55
2023-04-16T17:17:09.978Z,14.52
2023-04-16T17:21:14.023Z,14.54
2023-04-16T17:25:17.908Z,14.51
2023-04-16T17:29:25.857Z,14.46
2023-04-16T17:33:28.666Z,14.44
2023-04-16T17:37:31.446Z,14.38
2023-04-16T17:41:34.189Z,14.33
2023-04-16T17:45:38.254Z,14.21
2023-04-16T17:49:41.227Z,14.19
2023-04-16T17:53:44.651Z,14.11
2023-04-16T17:57:47.514Z,14.07
2023-04-16T18:01:51.734Z,14.07
2023-04-16T18:05:54.522Z,14.06
2023-04-16T18:09:57.239Z,14.06
2023-04-16T18:13:59.940Z,14.09
2023-04-16T18:18:03.985Z,14.06
2023-04-16T18:22:06.646Z,14.03
2023-04-16T18:26:09.483Z,13.98
2023-04-16T18:34:22.533Z,13.94
2023-04-16T18:38:25.607Z,13.90
2023-04-16T18:42:29.176Z,13.87
2023-04-16T18:46:31.903Z,13.79
2023-04-16T18:50:36.277Z,13.74
2023-04-16T18:54:38.936Z,13.65
2023-04-16T18:58:41.590Z,13.58
2023-04-16T19:02:44.534Z,13.51
2023-04-16T19:06:48.759Z,13.46
2023-04-16T19:10:51.609Z,13.38
2023-04-16T19:14:54.291Z,13.33
2023-04-16T19:18:57.119Z,13.28
2023-04-16T19:23:01.658Z,13.23
2023-04-16T19:27:04.387Z,13.20
2023-04-16T19:31:07.206Z,13.16
2023-04-16T19:35:10.714Z,13.18
2023-04-16T19:39:14.796Z,13.20
2023-04-16T19:43:17.471Z,13.14
2023-04-16T19:47:20.498Z,13.07
2023-04-16T19:51:23.291Z,12.90
2023-04-16T19:55:27.322Z,12.72
2023-04-16T19:59:32.171Z,12.67
2023-04-16T20:03:35.048Z,12.59
2023-04-16T20:07:37.798Z,12.54
2023-04-16T20:11:41.926Z,12.52
2023-04-16T20:15:44.938Z,12.50
2023-04-16T20:19:49.660Z,12.53
2023-04-16T20:23:52.402Z,12.50
2023-04-16T20:27:57.677Z,12.40
2023-04-16T20:32:00.457Z,12.30
2023-04-16T20:36:03.174Z,12.17
2023-04-16T20:40:08.851Z,11.90
2023-04-16T20:44:18.126Z,11.80
2023-04-16T20:48:20.900Z,11.67
2023-04-16T20:52:23.618Z,11.58
2023-04-16T20:56:26.411Z,11.45
2023-04-16T21:00:30.544Z,11.44
2023-04-16T21:04:33.435Z,11.36
2023-04-16T21:08:36.496Z,11.32
2023-04-16T21:12:39.318Z,11.33
2023-04-16T21:16:43.363Z,11.34
2023-04-16T21:20:46.111Z,11.30
2023-04-16T21:24:48.846Z,11.16
2023-04-16T21:28:52.601Z,11.16
2023-04-16T21:32:58.002Z,11.10
2023-04-16T21:37:00.832Z,11.06
2023-04-16T21:41:03.537Z,11.05
2023-04-16T21:45:07.539Z,11.08
2023-04-16T21:49:11.772Z,11.05
2023-04-16T21:53:14.644Z,10.95
2023-04-16T21:57:17.382Z,10.86
2023-04-16T22:01:20.175Z,10.80
2023-04-16T22:05:24.205Z,10.90
2023-04-16T22:09:26.839Z,10.84
2023-04-16T22:13:32.121Z,10.74
2023-04-16T22:17:35.231Z,10.71
2023-04-16T22:21:48.313Z,10.66
2023-04-16T22:25:51.096Z,10.63
2023-04-16T22:29:53.732Z,10.54
2023-04-16T22:33:56.490Z,10.50
2023-04-16T22:38:00.541Z,10.44
2023-04-16T22:42:03.426Z,10.45
2023-04-16T22:46:07.951Z,10.53
2023-04-16T22:50:12.162Z,10.45
2023-04-16T22:54:16.353Z,10.44
2023-04-16T22:58:19.009Z,10.33
2023-04-16T23:02:22.075Z,10.32
2023-04-16T23:06:24.929Z,10.27
2023-04-16T23:10:28.977Z,10.21
2023-04-16T23:14:31.641Z,10.23
2023-04-16T23:18:34.517Z,10.20
2023-04-16T23:22:37.520Z,10.14
2023-04-16T23:26:41.599Z,10.12
2023-04-16T23:30:44.256Z,10.15
2023-04-16T23:34:46.971Z,10.21
2023-04-16T23:38:49.746Z,10.22
2023-04-16T23:42:53.839Z,10.24
2023-04-16T23:46:57.222Z,10.07
2023-04-16T23:51:00.174Z,10.01
2023-04-16T23:55:03.001Z,10.01
2023-04-16T23:59:08.593Z,9.98
